• Join FlightAware (Why Join?)
  • Login
  • US Flag 
09:55PM EDT


 

Airport Tracker/Info


-or-


 

Live Flight TrackerFlight Track Log ✈ FLG3780 ✈ 24-Apr-2013 ✈ KALB - KDTW

Flight Track Log - Related Links

Times and Time Zones

All times are in EDT time to prevent confusion due to time zone crossing. See the FLG3780 flight status page for this flight to view local times or setup timezone preferences in your user account.

Time Position Orientation Groundspeed Altitude Reporting Facility
EDT Latitude Longitude Course Direction KTS MPH feet Rate Location/Type
09:31AM 42.7694 -73.8089 283° West 164 189 1,200  Level Boston Center
09:32AM 42.8086 -73.8297 339° North 194 223 2,700 2,160 Climbing Boston Center
09:33AM 42.8767 -73.8992 323° Northwest 246 283 6,000 2,340 Climbing Boston Center
09:34AM 42.8225 -74.2570 281° West  Level FlightAware Approximate
09:34AM 42.9342 -73.9600 322° Northwest 260 299 8,400  Level Boston Center
09:35AM 42.8402 -74.3743 283° West  Level FlightAware Approximate
09:35AM 42.9958 -74.0269 322° Northwest 281 323 10,700  Level Boston Center
09:36AM 42.8596 -74.4911 283° West  Level FlightAware Approximate
09:36AM 43.0656 -74.1056 321° Northwest 305 351 12,100  Level Boston Center
09:37AM 43.0931 -74.2228 288° West 315 362 14,000 1,800 Climbing Boston Center
09:38AM 43.0975 -74.3367 273° West 331 381 15,700 1,500 Climbing Boston Center
09:39AM 43.1053 -74.4819 274° West 344 396 17,100 1,200 Climbing Boston Center
09:40AM 43.1092 -74.6044 273° West 355 409 18,200 1,080 Climbing Boston Center
09:41AM 43.1150 -74.7411 273° West 355 409 19,300 1,080 Climbing Boston Center
09:42AM 43.1183 -74.8836 272° West 370 426 20,400 960 Climbing Boston Center
09:43AM 43.1256 -75.0261 274° West 370 426 21,300 1,020 Climbing Boston Center
09:44AM 43.1303 -75.1856 272° West 375 432 22,500 1,020 Climbing Boston Center
09:45AM 43.1347 -75.3339 272° West 382 440 23,400 900 Climbing Boston Center
09:46AM 43.1392 -75.4819 272° West 388 447 24,400 960 Climbing Boston Center
09:47AM 43.1458 -75.6247 274° West 388 447 25,400 900 Climbing Boston Center
09:48AM 43.1500 -75.7731 272° West 388 447 26,200 720 Climbing Boston Center
09:50AM 43.1578 -76.0661 272° West 378 435 27,600 600 Climbing Cleveland Center
09:51AM 43.1594 -76.2139 271° West 384 442 28,000 180 Climbing Cleveland Center
09:52AM 43.1481 -76.3628 264° West 390 449 28,000  Level Cleveland Center
09:53AM 43.1347 -76.5144 263° West 396 456 28,000  Level Cleveland Center
09:54AM 43.1233 -76.6633 264° West 396 456 28,000  Level Cleveland Center
09:55AM 43.1089 -76.7950 261° West 396 456 28,000  Level Cleveland Center
09:56AM 43.0947 -76.9408 262° West 391 450 28,000  Level Cleveland Center
09:57AM 43.0847 -77.0867 265° West 391 450 28,000  Level Cleveland Center
09:58AM 43.0703 -77.2353 262° West 391 450 28,000  Level Cleveland Center
09:59AM 43.0556 -77.3781 262° West 391 450 28,000  Level Cleveland Center
10:00AM 43.0431 -77.5264 263° West 391 450 28,000  Level Cleveland Center
10:01AM 43.0281 -77.6722 262° West 391 450 28,000  Level Cleveland Center
10:02AM 43.0150 -77.8175 263° West 391 450 28,000  Level Cleveland Center
10:03AM 43.0017 -77.9600 263° West 391 450 28,000  Level Cleveland Center
10:04AM 42.9861 -78.1169 262° West 391 450 28,000  Level Cleveland Center
10:05AM 42.9706 -78.2594 262° West 391 450 28,000  Level Cleveland Center
10:06AM 42.9564 -78.3989 262° West 386 444 28,000  Level Cleveland Center
10:07AM 42.9422 -78.5383 262° West 386 444 28,000  Level Cleveland Center
10:08AM 42.9261 -78.6836 261° West 386 444 28,000  Level Cleveland Center
10:09AM 42.9075 -78.8203 260° West 386 444 28,000  Level Cleveland Center
10:10AM 42.8864 -78.9594 258° West 386 444 28,000  Level Cleveland Center
10:11AM 42.8653 -79.0961 258° West 381 438 28,000  Level Cleveland Center
10:12AM 42.8442 -79.2353 258° West 381 438 28,000  Level Cleveland Center
10:13AM 42.8289 -79.3717 261° West 376 433 28,000  Level Cleveland Center
10:14AM 42.8053 -79.5078 257° West 376 433 28,000  Level Cleveland Center
10:15AM 42.7858 -79.6439 259° West 376 433 28,000  Level Cleveland Center
10:16AM 42.7658 -79.7772 258° West 376 433 28,000  Level Cleveland Center
10:17AM 42.7522 -79.9158 262° West 376 433 28,000  Level Cleveland Center
10:18AM 42.7425 -80.0433 264° West 376 433 28,000  Level Cleveland Center
10:19AM 42.7367 -80.1817 267° West 376 433 28,000  Level Cleveland Center
10:20AM 42.7308 -80.3203 267° West 363 418 28,000  Level Cleveland Center
10:21AM 42.7247 -80.4561 267° West 368 423 28,000  Level Cleveland Center
10:22AM 42.7208 -80.5917 268° West 368 423 28,000 -480 Level Cleveland Center
10:23AM 42.7144 -80.7272 266° West 368 423 27,100 -960 Descending Cleveland Center
10:24AM 42.7078 -80.8628 266° West 368 423 26,100 -1,020 Descending Cleveland Center
10:25AM 42.6928 -81.0042 262° West 361 415 25,100 -960 Descending Cleveland Center
10:26AM 42.6797 -81.1339 262° West 346 398 24,200 -600 Descending Cleveland Center
10:27AM 42.6667 -81.2525 262° West 341 392 24,000 -120 Descending Cleveland Center
10:28AM 42.6514 -81.3792 261° West 334 384 24,000  Level Cleveland Center
10:29AM 42.6378 -81.5061 262° West 334 384 24,000  Level Cleveland Center
10:30AM 42.6200 -81.6328 259° West 334 384 24,000  Level Cleveland Center
10:31AM 42.6042 -81.7539 260° West 339 390 24,000 -540 Level Cleveland Center
10:32AM 42.5906 -81.8692 261° West 339 390 23,000 -1,620 Descending Cleveland Center
10:33AM 42.5767 -81.9903 261° West 334 384 20,800 -2,160 Descending Cleveland Center
10:34AM 42.5625 -82.1083 261° West 329 379 18,700 -2,100 Descending Cleveland Center
10:35AM 42.5486 -82.2233 261° West 324 373 16,600 -2,340 Descending Cleveland Center
10:36AM 42.5344 -82.3303 260° West 309 356 14,700 -2,220 Descending Cleveland Center
10:36AM 42.5322 -82.3386 250° West 318 366 14,400 -2,220 Descending Cleveland Center
10:37AM 42.5222 -82.4453 263° West 312 359 12,500 -1,380 Descending Cleveland Center
10:38AM 42.5036 -82.5603 258° West 319 367 12,000 -300 Descending Cleveland Center
10:39AM 42.4664 -82.6689 245° Southwest 310 357 12,000  Level Cleveland Center
10:40AM 42.4267 -82.7744 243° Southwest 303 349 12,000  Level Cleveland Center
10:41AM 42.3892 -82.8828 245° Southwest 309 356 12,000  Level Cleveland Center
10:42AM 42.3497 -82.9853 243° Southwest 313 360 12,000  Level Cleveland Center
10:43AM 42.3161 -83.0853 246° West 289 333 12,000  Level Cleveland Center
10:44AM 42.3078 -83.1858 264° West 293 337 12,000  Level Cleveland Center
10:45AM 42.3247 -83.2681 286° West 235 270 12,000  Level Cleveland Center
10:46AM 42.3689 -83.3319 313° West 234 269 12,000 -420 Level Cleveland Center
10:47AM 42.3508 -83.3928 248° West 205 236 11,200 -540 Descending Cleveland Center
10:48AM 42.2978 -83.4325 209° Southwest 213 245 10,900 -660 Descending Cleveland Center
10:49AM 42.2406 -83.4719 207° Southwest 217 250 9,800 -900 Descending Cleveland Center
10:50AM 42.1853 -83.5089 206° Southwest 211 243 9,000 -840 Descending Cleveland Center
10:51AM 42.1386 -83.5403 207° Southwest 177 204 8,100 -540 Descending Cleveland Center
10:52AM 42.0942 -83.5717 208° Southwest 180 207 8,000 -120 Descending Cleveland Center